createdAt,value
2017-08-25T00:00:10.890Z,46.27
2017-08-25T00:02:39.712Z,47.80
2017-08-25T00:05:08.578Z,61.33
2017-08-25T00:07:37.252Z,75.43
2017-08-25T00:10:05.642Z,58.00
2017-08-25T00:12:34.434Z,57.97
2017-08-25T00:15:03.217Z,79.33
2017-08-25T00:17:31.895Z,95.07
2017-08-25T00:20:00.554Z,63.33
2017-08-25T00:22:29.283Z,73.47
2017-08-25T00:24:57.894Z,99.13
2017-08-25T00:27:26.644Z,96.40
2017-08-25T00:29:55.066Z,93.37
2017-08-25T00:32:23.659Z,115.57
2017-08-25T00:34:51.927Z,119.20
2017-08-25T00:37:20.510Z,118.10
2017-08-25T00:39:49.160Z,108.60
2017-08-25T00:42:17.722Z,104.40
2017-08-25T00:44:46.239Z,96.80
2017-08-25T00:47:14.922Z,111.13
2017-08-25T00:49:43.501Z,127.93
2017-08-25T00:52:12.103Z,142.53
2017-08-25T00:54:40.780Z,118.47
2017-08-25T00:57:09.561Z,112.27
2017-08-25T00:59:38.148Z,121.93
2017-08-25T01:02:06.750Z,122.33
2017-08-25T01:04:35.454Z,116.13
2017-08-25T01:07:04.178Z,113.87
2017-08-25T01:09:32.602Z,108.00
2017-08-25T01:12:01.291Z,101.10
2017-08-25T01:14:29.866Z,110.73
2017-08-25T01:16:58.395Z,99.13
2017-08-25T01:19:27.207Z,112.60
2017-08-25T01:21:55.730Z,97.27
2017-08-25T01:24:24.310Z,107.77
2017-08-25T01:26:52.917Z,104.70
2017-08-25T01:29:21.619Z,97.67
2017-08-25T01:31:50.200Z,102.97
2017-08-25T01:34:19.785Z,82.80
2017-08-25T01:36:47.906Z,88.97
2017-08-25T01:39:16.318Z,83.57
2017-08-25T01:41:45.162Z,98.87
2017-08-25T01:44:13.810Z,87.90
2017-08-25T01:46:42.490Z,96.30
2017-08-25T01:49:11.050Z,90.70
2017-08-25T01:51:39.701Z,87.73
2017-08-25T01:54:08.182Z,78.00
2017-08-25T01:56:36.394Z,100.93
2017-08-25T01:59:05.082Z,76.67
2017-08-25T02:01:33.158Z,78.30
2017-08-25T02:04:01.987Z,72.50
2017-08-25T02:06:30.668Z,79.20
2017-08-25T02:08:59.346Z,88.70
2017-08-25T02:11:27.539Z,87.07
2017-08-25T02:13:56.138Z,66.50
2017-08-25T02:16:24.861Z,75.80
2017-08-25T02:18:53.381Z,86.57
2017-08-25T02:21:22.178Z,68.00
2017-08-25T02:23:50.759Z,76.27
2017-08-25T02:26:19.539Z,69.97
2017-08-25T02:28:48.010Z,73.67
2017-08-25T02:31:16.629Z,69.23
2017-08-25T02:33:44.770Z,59.60
2017-08-25T02:36:13.379Z,58.97
2017-08-25T02:38:41.985Z,69.20
2017-08-25T02:41:10.853Z,65.23
2017-08-25T02:43:39.530Z,48.20
2017-08-25T02:46:08.063Z,59.43
2017-08-25T02:48:36.634Z,52.03
2017-08-25T02:51:05.359Z,63.03
2017-08-25T02:53:33.858Z,62.30
2017-08-25T02:56:02.046Z,70.80
2017-08-25T02:58:30.525Z,63.90
2017-08-25T03:00:59.022Z,53.53
2017-08-25T03:03:27.910Z,55.07
2017-08-25T03:05:55.998Z,67.40
2017-08-25T03:08:24.393Z,71.33
2017-08-25T03:10:52.510Z,58.47
2017-08-25T03:13:21.126Z,48.80
2017-08-25T03:15:49.634Z,58.63
2017-08-25T03:18:18.706Z,65.80
2017-08-25T03:20:47.182Z,64.50
2017-08-25T03:23:15.770Z,47.63
2017-08-25T03:25:44.558Z,62.03
2017-08-25T03:28:13.238Z,50.57
2017-08-25T03:30:41.262Z,72.90
2017-08-25T03:33:10.074Z,58.73
2017-08-25T03:35:38.690Z,68.80
2017-08-25T03:38:07.313Z,62.77
2017-08-25T03:40:36.171Z,63.37
2017-08-25T03:43:04.218Z,69.13
2017-08-25T03:45:32.754Z,57.50
2017-08-25T03:48:01.313Z,71.43
2017-08-25T03:50:29.898Z,70.63
2017-08-25T03:52:58.482Z,90.50
2017-08-25T03:55:27.438Z,67.67
2017-08-25T03:57:55.931Z,67.13
2017-08-25T04:00:24.540Z,80.43
2017-08-25T04:02:53.267Z,77.60
2017-08-25T04:05:21.806Z,96.73
2017-08-25T04:07:50.402Z,60.53
2017-08-25T04:10:19.198Z,81.07
2017-08-25T04:12:47.841Z,86.67
2017-08-25T04:15:16.657Z,57.83
2017-08-25T04:17:45.314Z,72.60
2017-08-25T04:20:13.421Z,90.40
2017-08-25T04:22:41.434Z,61.43
2017-08-25T04:25:10.326Z,88.87
2017-08-25T04:27:39.078Z,92.43
2017-08-25T04:30:07.829Z,78.13
2017-08-25T04:32:36.821Z,121.97
2017-08-25T04:35:05.222Z,93.43
2017-08-25T04:37:33.726Z,90.20
2017-08-25T04:40:02.514Z,80.40
2017-08-25T04:42:31.163Z,80.67
2017-08-25T04:44:59.721Z,72.73
2017-08-25T04:47:28.486Z,83.33
2017-08-25T04:49:57.121Z,90.37
2017-08-25T04:52:25.898Z,99.03
2017-08-25T04:54:54.702Z,108.83
2017-08-25T04:57:23.230Z,62.37
2017-08-25T04:59:51.870Z,92.90
2017-08-25T05:02:20.354Z,94.00
2017-08-25T05:04:48.878Z,103.43
2017-08-25T05:07:17.526Z,79.37
2017-08-25T05:09:45.722Z,118.90
2017-08-25T05:12:14.147Z,105.30
2017-08-25T05:14:42.582Z,115.37
2017-08-25T05:17:11.299Z,124.13
2017-08-25T05:38:23.458Z,106.40
2017-08-25T05:40:51.942Z,109.53
2017-08-25T05:43:20.662Z,90.70
2017-08-25T05:45:49.551Z,105.43
2017-08-25T05:48:17.968Z,103.17
2017-08-25T05:50:46.562Z,95.27
2017-08-25T05:53:15.270Z,93.40
2017-08-25T05:55:43.918Z,75.17
2017-08-25T05:58:12.343Z,75.40
2017-08-25T06:00:40.998Z,70.57
2017-08-25T06:03:09.673Z,96.80
2017-08-25T06:05:38.270Z,107.93
2017-08-25T06:08:06.986Z,70.23
2017-08-25T06:10:35.006Z,126.87
2017-08-25T06:13:03.018Z,95.87
2017-08-25T06:15:31.542Z,119.27
2017-08-25T06:17:59.646Z,74.57
2017-08-25T06:20:27.666Z,96.70
2017-08-25T06:22:56.026Z,72.83
2017-08-25T06:25:24.054Z,93.73
2017-08-25T06:27:52.666Z,92.57
2017-08-25T06:30:21.618Z,78.97
2017-08-25T06:32:50.170Z,89.03
2017-08-25T06:35:18.746Z,69.73
2017-08-25T06:37:47.514Z,59.90
2017-08-25T06:40:16.268Z,56.70
2017-08-25T06:42:44.290Z,48.17
2017-08-25T06:45:13.067Z,62.33
2017-08-25T06:47:41.743Z,51.50
2017-08-25T06:50:10.230Z,59.70
2017-08-25T06:52:38.406Z,56.70
2017-08-25T06:55:06.931Z,64.70
2017-08-25T06:57:34.944Z,42.60
2017-08-25T07:00:03.519Z,42.13
2017-08-25T07:02:32.138Z,27.83
2017-08-25T07:05:00.579Z,28.03
2017-08-25T07:07:29.071Z,49.53
2017-08-25T07:09:57.599Z,35.70
2017-08-25T07:12:26.270Z,52.00
2017-08-25T07:14:54.771Z,31.83
2017-08-25T07:17:23.345Z,37.53
2017-08-25T07:19:52.126Z,39.63
2017-08-25T07:22:20.918Z,36.23
2017-08-25T07:24:49.666Z,32.70
2017-08-25T07:27:17.790Z,31.40
2017-08-25T07:29:46.740Z,40.83
2017-08-25T07:32:15.131Z,29.67
2017-08-25T07:34:43.642Z,37.17
2017-08-25T07:37:12.350Z,31.17
2017-08-25T07:39:40.362Z,35.20
2017-08-25T07:42:08.402Z,37.20
2017-08-25T07:44:36.988Z,23.13
2017-08-25T07:47:05.565Z,35.67
2017-08-25T07:49:34.213Z,26.45
2017-08-25T07:52:02.796Z,27.40
2017-08-25T07:54:31.322Z,37.10
2017-08-25T07:56:59.351Z,30.43
2017-08-25T07:59:28.058Z,24.35
2017-08-25T08:01:56.645Z,34.80
2017-08-25T08:04:25.160Z,26.67
2017-08-25T08:06:53.812Z,23.00
2017-08-25T08:09:22.499Z,23.00
2017-08-25T08:11:51.272Z,26.67
2017-08-25T08:14:19.522Z,23.07
2017-08-25T08:16:48.082Z,31.73
2017-08-25T08:19:16.692Z,28.53
2017-08-25T08:21:45.073Z,28.10
2017-08-25T08:24:13.622Z,37.40
2017-08-25T08:26:42.374Z,22.00
2017-08-25T08:29:10.947Z,26.63
2017-08-25T08:31:39.514Z,25.77
2017-08-25T08:34:08.370Z,31.63
2017-08-25T08:36:43.984Z,21.90
2017-08-25T08:39:12.710Z,24.27
2017-08-25T08:41:41.366Z,27.07
2017-08-25T08:44:09.922Z,22.23
2017-08-25T08:46:38.446Z,27.30
2017-08-25T08:49:06.906Z,28.13
2017-08-25T08:51:36.071Z,23.37
2017-08-25T08:54:04.526Z,19.27
2017-08-25T08:56:33.114Z,30.17
2017-08-25T08:59:02.107Z,29.53
2017-08-25T09:01:31.625Z,31.00
2017-08-25T09:04:00.174Z,27.27
2017-08-25T09:06:38.437Z,25.33
2017-08-25T09:09:07.053Z,26.83
2017-08-25T09:11:35.526Z,29.50
2017-08-25T09:14:04.233Z,32.50
2017-08-25T09:16:32.818Z,29.10
2017-08-25T09:19:01.496Z,28.13
2017-08-25T09:21:30.170Z,26.17
2017-08-25T09:23:58.282Z,29.80
2017-08-25T09:26:26.783Z,23.03
2017-08-25T09:28:55.469Z,31.30
2017-08-25T09:31:24.222Z,39.80
2017-08-25T09:33:52.691Z,29.17
2017-08-25T09:36:21.430Z,33.37
2017-08-25T09:38:50.011Z,31.77
2017-08-25T09:41:18.730Z,25.90
2017-08-25T09:43:47.482Z,30.50
2017-08-25T09:46:16.048Z,33.20
2017-08-25T09:48:44.626Z,33.00
2017-08-25T09:51:13.581Z,29.43
2017-08-25T09:53:41.599Z,27.27
2017-08-25T09:56:10.308Z,32.43
2017-08-25T09:58:38.518Z,25.83
2017-08-25T10:01:07.146Z,34.47
2017-08-25T10:03:35.735Z,27.13
2017-08-25T10:06:04.403Z,25.30
2017-08-25T10:08:32.427Z,30.67
2017-08-25T10:11:00.445Z,28.20
2017-08-25T10:13:29.254Z,26.83
2017-08-25T10:15:57.791Z,30.23
2017-08-25T10:18:26.191Z,38.40
2017-08-25T10:20:54.319Z,27.03
2017-08-25T10:23:22.797Z,35.23
2017-08-25T10:25:50.921Z,27.37
2017-08-25T10:28:19.840Z,34.73
2017-08-25T10:30:48.247Z,21.80
2017-08-25T10:33:28.462Z,29.10
2017-08-25T10:36:08.618Z,32.43
2017-08-25T10:38:57.992Z,33.37
2017-08-25T10:41:38.371Z,19.23
2017-08-25T10:44:18.622Z,29.13
2017-08-25T10:46:46.670Z,33.83
2017-08-25T10:49:15.211Z,30.67
2017-08-25T10:51:44.070Z,33.03
2017-08-25T10:54:12.229Z,21.23
2017-08-25T10:56:40.759Z,32.47
2017-08-25T10:59:09.590Z,27.03
2017-08-25T11:01:38.090Z,33.63
2017-08-25T11:04:06.622Z,24.80
2017-08-25T11:06:34.747Z,24.60
2017-08-25T11:09:03.434Z,29.90
2017-08-25T11:11:31.463Z,30.90
2017-08-25T11:13:59.962Z,24.00
2017-08-25T11:16:28.410Z,28.30
2017-08-25T11:18:56.790Z,31.33
2017-08-25T11:21:25.462Z,15.53
2017-08-25T11:23:54.098Z,27.53
2017-08-25T11:26:22.494Z,27.93
2017-08-25T11:28:51.214Z,38.90
2017-08-25T11:31:19.326Z,27.37
2017-08-25T11:33:47.894Z,24.37
2017-08-25T11:36:16.553Z,30.70
2017-08-25T11:38:45.225Z,23.33
2017-08-25T11:41:13.822Z,19.00
2017-08-25T11:43:41.962Z,26.30
2017-08-25T11:46:10.137Z,29.53
2017-08-25T11:48:38.577Z,27.43
2017-08-25T11:51:07.463Z,37.33
2017-08-25T11:53:35.910Z,23.73
2017-08-25T11:56:04.311Z,31.27
2017-08-25T11:58:33.158Z,26.70
2017-08-25T12:01:02.650Z,22.60
2017-08-25T12:03:31.146Z,22.87
2017-08-25T12:05:59.527Z,31.33
2017-08-25T12:08:27.586Z,32.50
2017-08-25T12:10:56.222Z,28.87
2017-08-25T12:13:24.946Z,22.53
2017-08-25T12:15:53.058Z,24.07
2017-08-25T12:18:22.204Z,24.33
2017-08-25T12:20:50.374Z,33.13
2017-08-25T12:23:18.386Z,33.63
2017-08-25T12:25:47.242Z,32.20
2017-08-25T12:28:15.798Z,27.47
2017-08-25T12:30:43.847Z,21.70
2017-08-25T12:33:11.884Z,24.60
2017-08-25T12:35:40.001Z,26.63
2017-08-25T12:38:08.030Z,30.93
2017-08-25T12:40:36.037Z,32.03
2017-08-25T12:43:04.242Z,36.40
2017-08-25T12:45:32.274Z,28.03
2017-08-25T12:48:00.318Z,22.07
2017-08-25T12:50:28.543Z,29.90
2017-08-25T12:52:56.653Z,29.90
2017-08-25T12:55:26.546Z,30.13
2017-08-25T12:57:54.686Z,29.00
2017-08-25T13:00:23.537Z,31.00
2017-08-25T13:02:51.942Z,20.73
2017-08-25T13:05:20.622Z,23.70
2017-08-25T13:07:49.162Z,32.80
2017-08-25T13:10:17.185Z,32.30
2017-08-25T13:12:45.895Z,24.57
2017-08-25T13:15:14.500Z,32.57
2017-08-25T13:17:42.585Z,29.93
2017-08-25T13:20:10.713Z,23.50
2017-08-25T13:22:39.278Z,25.30
2017-08-25T13:25:07.998Z,32.30
2017-08-25T13:27:36.478Z,33.43
2017-08-25T13:30:04.926Z,21.63
2017-08-25T13:32:33.647Z,29.93
2017-08-25T13:35:02.238Z,29.20
2017-08-25T13:37:30.922Z,30.77
2017-08-25T13:39:59.542Z,30.63
2017-08-25T13:42:28.395Z,32.97
2017-08-25T13:44:56.807Z,29.63
2017-08-25T13:47:24.906Z,29.33
2017-08-25T13:49:53.438Z,27.27
2017-08-25T13:52:21.857Z,28.17
2017-08-25T13:54:50.543Z,27.60
2017-08-25T13:57:19.434Z,27.40
2017-08-25T13:59:47.901Z,25.50
2017-08-25T14:02:16.499Z,47.20
2017-08-25T14:04:45.396Z,29.47
2017-08-25T14:07:13.938Z,28.27
2017-08-25T14:09:42.494Z,32.93
2017-08-25T14:12:11.261Z,28.13
2017-08-25T14:14:40.038Z,30.20
2017-08-25T14:17:08.059Z,38.17
2017-08-25T14:19:36.716Z,32.60
2017-08-25T14:22:05.447Z,30.13
2017-08-25T14:24:33.846Z,30.17
2017-08-25T14:27:02.666Z,32.87
2017-08-25T14:29:31.270Z,28.07
2017-08-25T14:31:59.991Z,29.27
2017-08-25T14:34:28.578Z,31.73
2017-08-25T14:36:57.098Z,31.43
2017-08-25T14:39:25.783Z,28.97
2017-08-25T14:41:54.638Z,32.23
2017-08-25T14:44:23.038Z,29.50
2017-08-25T14:46:51.675Z,33.80
2017-08-25T14:49:20.450Z,32.23
2017-08-25T14:51:49.211Z,32.97
2017-08-25T14:54:17.794Z,34.67
2017-08-25T14:56:46.631Z,37.47
2017-08-25T14:59:15.282Z,34.37
2017-08-25T15:01:43.972Z,28.27
2017-08-25T15:04:12.558Z,37.67
2017-08-25T15:06:40.578Z,42.40
2017-08-25T15:09:08.992Z,21.57
2017-08-25T15:11:37.732Z,34.03
2017-08-25T15:14:06.242Z,34.97
2017-08-25T15:16:34.790Z,25.23
2017-08-25T15:19:03.386Z,30.63
2017-08-25T15:21:31.962Z,26.70
2017-08-25T15:24:00.683Z,27.17
2017-08-25T15:26:28.787Z,26.00
2017-08-25T15:28:57.484Z,30.63
2017-08-25T15:31:26.027Z,32.83
2017-08-25T15:33:54.617Z,30.47
2017-08-25T15:36:23.266Z,27.13
2017-08-25T15:38:51.955Z,48.40
2017-08-25T15:41:20.814Z,29.43
2017-08-25T15:43:49.595Z,36.20
2017-08-25T15:46:18.122Z,32.87
2017-08-25T15:48:46.782Z,28.63
2017-08-25T15:51:15.462Z,38.13
2017-08-25T15:53:44.139Z,29.33
2017-08-25T15:56:12.902Z,25.97
2017-08-25T15:58:41.323Z,30.33
2017-08-25T16:01:09.966Z,38.70
2017-08-25T16:03:38.358Z,30.97
2017-08-25T16:06:07.958Z,28.07
2017-08-25T16:08:36.350Z,39.00
2017-08-25T16:11:04.962Z,28.60
2017-08-25T16:13:33.574Z,25.93
2017-08-25T16:16:02.119Z,26.90
2017-08-25T16:18:30.782Z,34.30
2017-08-25T16:20:59.301Z,29.80
2017-08-25T16:23:27.847Z,27.77
2017-08-25T16:25:56.342Z,38.17
2017-08-25T16:28:24.782Z,26.77
2017-08-25T16:30:53.438Z,29.63
2017-08-25T16:33:21.527Z,29.13
2017-08-25T16:35:50.018Z,30.60
2017-08-25T16:38:18.742Z,32.37
2017-08-25T16:40:47.226Z,33.50
2017-08-25T16:43:15.234Z,34.03
2017-08-25T16:45:43.700Z,32.17
2017-08-25T16:48:12.407Z,26.43
2017-08-25T16:50:40.990Z,25.47
2017-08-25T16:53:09.879Z,31.57
2017-08-25T16:55:38.457Z,37.87
2017-08-25T16:58:07.054Z,36.43
2017-08-25T17:00:35.742Z,31.97
2017-08-25T17:03:04.527Z,25.20
2017-08-25T17:05:33.203Z,29.70
2017-08-25T17:08:01.686Z,27.40
2017-08-25T17:10:30.208Z,34.90
2017-08-25T17:12:58.931Z,29.80
2017-08-25T17:15:27.349Z,33.73
2017-08-25T17:17:55.890Z,34.97
2017-08-25T17:20:24.520Z,32.03
2017-08-25T17:22:53.063Z,39.43
2017-08-25T17:25:21.261Z,30.63
2017-08-25T17:27:49.274Z,29.63
2017-08-25T17:30:17.841Z,25.43
2017-08-25T17:32:46.626Z,37.23
2017-08-25T17:35:15.198Z,26.80
2017-08-25T17:37:43.694Z,39.17
2017-08-25T17:40:12.486Z,30.63
2017-08-25T17:42:41.238Z,42.27
2017-08-25T17:45:09.630Z,30.20
2017-08-25T17:47:37.886Z,34.50
2017-08-25T17:50:05.914Z,30.83
2017-08-25T17:52:34.490Z,33.77
2017-08-25T17:55:03.382Z,32.37
2017-08-25T17:57:31.494Z,30.53
2017-08-25T17:59:59.511Z,41.33
2017-08-25T18:02:27.789Z,33.13
2017-08-25T18:04:55.806Z,36.80
2017-08-25T18:07:23.834Z,27.70
2017-08-25T18:09:51.957Z,26.80
2017-08-25T18:12:19.994Z,32.40
2017-08-25T18:14:48.111Z,36.23
2017-08-25T18:17:16.306Z,28.63
2017-08-25T18:19:44.318Z,26.33
2017-08-25T18:22:12.331Z,30.53
2017-08-25T18:24:40.496Z,39.17
2017-08-25T18:27:08.558Z,24.20
2017-08-25T18:29:36.598Z,36.33
2017-08-25T18:32:04.743Z,29.10
2017-08-25T18:34:32.837Z,35.70
2017-08-25T18:37:00.855Z,37.57
2017-08-25T18:39:28.950Z,38.53
2017-08-25T18:41:56.966Z,33.33
2017-08-25T18:44:24.986Z,36.87
2017-08-25T18:46:53.103Z,29.63
2017-08-25T18:49:21.126Z,40.43
2017-08-25T18:51:49.158Z,29.67
2017-08-25T18:54:17.297Z,36.60
2017-08-25T18:56:45.313Z,33.20
2017-08-25T18:59:13.338Z,37.40
2017-08-25T19:01:41.466Z,30.17
2017-08-25T19:04:09.494Z,33.47
2017-08-25T19:06:37.608Z,34.50
2017-08-25T19:09:05.812Z,26.63
2017-08-25T19:11:33.840Z,33.50
2017-08-25T19:14:01.867Z,32.70
2017-08-25T19:16:29.988Z,32.27
2017-08-25T19:18:58.016Z,33.17
2017-08-25T19:21:26.057Z,33.90
2017-08-25T19:23:54.252Z,25.73
2017-08-25T19:26:22.286Z,29.70
2017-08-25T19:28:50.417Z,37.03
2017-08-25T19:31:18.593Z,28.93
2017-08-25T19:33:47.003Z,27.70
2017-08-25T19:36:15.059Z,37.67
2017-08-25T19:38:43.240Z,33.80
2017-08-25T19:41:11.274Z,37.87
2017-08-25T19:43:39.306Z,21.73
2017-08-25T19:46:07.466Z,31.53
2017-08-25T19:48:35.507Z,38.67
2017-08-25T19:51:03.543Z,32.57
2017-08-25T19:53:31.730Z,38.90
2017-08-25T19:55:59.754Z,35.70
2017-08-25T19:58:27.946Z,34.10
2017-08-25T20:00:56.054Z,31.60
2017-08-25T20:03:24.107Z,25.93
2017-08-25T20:05:52.166Z,24.33
2017-08-25T20:08:20.315Z,32.03
2017-08-25T20:10:48.334Z,37.30
2017-08-25T20:13:16.367Z,40.83
2017-08-25T20:15:44.508Z,34.37
2017-08-25T20:18:12.530Z,27.37
2017-08-25T20:20:40.641Z,36.00
2017-08-25T20:23:08.761Z,32.40
2017-08-25T20:25:36.790Z,25.10
2017-08-25T20:28:04.823Z,31.97
2017-08-25T20:30:33.047Z,26.77
2017-08-25T20:33:01.078Z,30.93
2017-08-25T20:35:29.115Z,31.80
2017-08-25T20:37:57.231Z,26.87
2017-08-25T20:40:25.262Z,37.30
2017-08-25T20:42:53.298Z,32.97
2017-08-25T20:45:21.457Z,25.73
2017-08-25T20:47:49.503Z,43.63
2017-08-25T20:50:17.538Z,42.67
2017-08-25T20:52:45.799Z,30.00
2017-08-25T20:55:13.838Z,34.77
2017-08-25T20:57:41.871Z,39.03
2017-08-25T21:00:10.174Z,33.20
2017-08-25T21:02:38.199Z,29.53
2017-08-25T21:05:06.265Z,32.73
2017-08-25T21:07:34.458Z,34.67
2017-08-25T21:10:02.542Z,31.40
2017-08-25T21:12:30.571Z,28.23
2017-08-25T21:14:58.710Z,34.37
2017-08-25T21:17:26.731Z,25.33
2017-08-25T21:19:54.778Z,30.80
2017-08-25T21:22:23.120Z,33.70
2017-08-25T21:24:51.202Z,38.43
2017-08-25T21:27:19.225Z,37.87
2017-08-25T21:29:47.410Z,32.50
2017-08-25T21:32:15.442Z,33.03
2017-08-25T21:34:43.470Z,38.67
2017-08-25T21:37:11.677Z,33.17
2017-08-25T21:39:39.689Z,37.53
2017-08-25T21:42:07.711Z,26.60
2017-08-25T21:44:35.834Z,37.17
2017-08-25T21:47:03.856Z,37.47
2017-08-25T21:49:31.887Z,42.10
2017-08-25T21:52:00.003Z,38.97
2017-08-25T21:54:28.033Z,40.27
2017-08-25T21:56:56.083Z,31.40
2017-08-25T21:59:24.190Z,35.67
2017-08-25T22:01:52.212Z,32.23
2017-08-25T22:04:20.235Z,29.83
2017-08-25T22:06:48.333Z,31.30
2017-08-25T22:09:16.362Z,35.73
2017-08-25T22:11:44.390Z,28.73
2017-08-25T22:14:12.571Z,33.47
2017-08-25T22:16:40.678Z,34.53
2017-08-25T22:19:08.703Z,33.00
2017-08-25T22:21:36.889Z,35.97
2017-08-25T22:24:04.928Z,39.63
2017-08-25T22:26:33.040Z,38.97
2017-08-25T22:29:01.176Z,35.53
2017-08-25T22:31:29.178Z,39.20
2017-08-25T22:33:57.193Z,36.77
2017-08-25T22:36:25.291Z,27.70
2017-08-25T22:38:53.334Z,40.47
2017-08-25T22:41:21.439Z,36.10
2017-08-25T22:43:49.551Z,33.97
2017-08-25T22:46:17.594Z,38.17
2017-08-25T22:48:45.619Z,37.67
2017-08-25T22:51:13.735Z,34.90
2017-08-25T22:53:41.775Z,37.00
2017-08-25T22:56:09.794Z,40.80
2017-08-25T22:58:38.019Z,37.90
2017-08-25T23:01:06.118Z,24.47
2017-08-25T23:03:34.131Z,26.93
2017-08-25T23:06:02.326Z,45.90
2017-08-25T23:08:30.356Z,30.30
2017-08-25T23:10:58.377Z,50.77
2017-08-25T23:13:26.533Z,34.40
2017-08-25T23:15:54.634Z,29.83
2017-08-25T23:18:22.654Z,36.00
2017-08-25T23:20:50.758Z,29.30
2017-08-25T23:23:18.780Z,38.70
2017-08-25T23:25:46.824Z,29.83
2017-08-25T23:28:15.887Z,34.50
2017-08-25T23:30:45.414Z,38.60
2017-08-25T23:33:14.108Z,34.30
2017-08-25T23:35:42.530Z,38.13
2017-08-25T23:38:11.642Z,41.57
2017-08-25T23:40:39.943Z,34.70
2017-08-25T23:43:08.626Z,35.60
2017-08-25T23:45:36.834Z,34.90
2017-08-25T23:48:05.172Z,38.33
2017-08-25T23:50:33.293Z,47.43
2017-08-25T23:53:01.482Z,48.60
2017-08-25T23:55:29.503Z,30.77
2017-08-25T23:57:58.138Z,41.70
